Terminal Aerodrome Forecast
Issued by NWS Green Bay, WI

Home | Current Version | Previous Version | Text Only | Print | Product List | Glossary On
Versions: 1 2 3 4 5 6 7 8 9 10 11 12 13 14 15 16 17 18 19 20 21 22 23 24 25 26 27 28 29 30 31 32 33 34 35 36 37 38 39 40 41 42
728
FTUS43 KGRB 301138
TAFGRB
TAF
KGRB 301138Z 3012/3112 04005KT P6SM SCT060 SCT090
      TEMPO 3012/3016 BKN060 BKN090
     FM301600 05009KT P6SM SCT040
     FM310300 VRB03KT P6SM FEW050 SCT100=

USA.gov is the U.S. government's official web portal to all federal, state and local government web resources and services.